Time;durP1;ratioP1;P1;durP2;ratioP2;P2;SDS_P1;SDS_P2;PMS_P1;PMS_P2;Temp;Humidity;BMP_temperature;BMP_pressure;BME280_temperature;BME280_humidity;BME280_pressure;Samples;Min_cycle;Max_cycle;Signal;HPM_P1;HPM_P2
2021/10/30 00:01:18;;;;;;;9.10;3.33;;;11.80;99.90;;;;;;5115536;28;20194;-76
2021/10/30 00:03:46;;;;;;;10.73;3.63;;;11.80;99.90;;;;;;5133762;27;20335;-76
2021/10/30 00:06:13;;;;;;;10.03;3.27;;;11.80;99.90;;;;;;5135569;27;20296;-76
2021/10/30 00:08:40;;;;;;;9.30;3.33;;;11.90;99.90;;;;;;5135134;27;20197;-76
2021/10/30 00:11:07;;;;;;;9.53;3.60;;;11.80;99.90;;;;;;5135448;27;20274;-76
2021/10/30 00:13:34;;;;;;;9.63;3.63;;;11.90;99.90;;;;;;5117354;27;20254;-76
2021/10/30 00:16:01;;;;;;;8.27;3.30;;;11.80;99.90;;;;;;5115334;28;20267;-76
2021/10/30 00:18:28;;;;;;;9.13;3.57;;;12.00;99.90;;;;;;5114631;28;20292;-77
2021/10/30 00:20:57;;;;;;;10.53;3.07;;;11.90;99.90;;;;;;5114850;27;20585;-77
2021/10/30 00:23:24;;;;;;;8.30;3.30;;;12.00;99.90;;;;;;5114952;28;20197;-77
2021/10/30 00:25:51;;;;;;;10.07;3.50;;;12.00;99.90;;;;;;5115406;28;20285;-76
2021/10/30 00:28:18;;;;;;;9.00;3.60;;;12.00;99.90;;;;;;5114512;27;20662;-77
2021/10/30 00:30:45;;;;;;;13.33;3.60;;;12.10;99.90;;;;;;5128323;27;20722;-77
2021/10/30 00:33:12;;;;;;;11.03;3.57;;;12.10;99.90;;;;;;5134803;27;20729;-76
2021/10/30 00:35:39;;;;;;;6.87;3.87;;;12.10;99.90;;;;;;5134838;27;20201;-77
2021/10/30 00:38:07;;;;;;;12.00;4.47;;;12.20;99.90;;;;;;5135146;27;20331;-76
2021/10/30 00:40:34;;;;;;;7.17;3.50;;;12.10;99.90;;;;;;5134484;27;20781;-77
2021/10/30 00:43:01;;;;;;;10.57;4.33;;;12.20;99.90;;;;;;5133814;27;20204;-77
2021/10/30 00:45:29;;;;;;;8.57;3.90;;;12.10;99.90;;;;;;5114525;27;20224;-77
2021/10/30 00:47:56;;;;;;;9.80;4.47;;;12.10;99.90;;;;;;5114217;27;20698;-77
2021/10/30 00:50:23;;;;;;;11.63;4.70;;;12.20;99.90;;;;;;5113943;28;20252;-77
2021/10/30 00:52:53;;;;;;;8.70;4.17;;;12.20;99.90;;;;;;5114164;27;20788;-77
2021/10/30 00:55:23;;;;;;;10.83;4.83;;;12.30;99.90;;;;;;5114581;28;20640;-77
2021/10/30 00:57:51;;;;;;;9.77;4.33;;;12.30;99.90;;;;;;5114494;28;20570;-78
2021/10/30 01:00:18;;;;;;;8.87;4.57;;;12.30;99.90;;;;;;5132901;27;20248;-77
2021/10/30 01:02:45;;;;;;;7.73;4.30;;;12.20;99.90;;;;;;5134763;27;20255;-77
2021/10/30 01:05:12;;;;;;;9.70;4.80;;;12.30;99.90;;;;;;5122902;27;20311;-76
2021/10/30 01:07:39;;;;;;;11.50;4.67;;;12.30;99.90;;;;;;5135003;27;20228;-77
2021/10/30 01:10:07;;;;;;;7.77;4.50;;;12.40;99.90;;;;;;5134723;27;20280;-77
2021/10/30 01:12:36;;;;;;;12.97;4.97;;;12.30;99.90;;;;;;5134199;27;20348;-77
2021/10/30 01:15:05;;;;;;;9.10;4.63;;;12.40;99.90;;;;;;5134385;27;20231;-77
2021/10/30 01:17:32;;;;;;;11.77;5.33;;;12.30;99.90;;;;;;5134304;27;20197;-77
2021/10/30 01:20:00;;;;;;;9.00;5.00;;;12.30;99.90;;;;;;5134285;27;20228;-77
2021/10/30 01:22:28;;;;;;;10.87;5.17;;;12.30;99.90;;;;;;5121951;27;20221;-77
2021/10/30 01:24:55;;;;;;;9.20;5.13;;;12.20;99.90;;;;;;5114094;27;20204;-76
2021/10/30 01:27:22;;;;;;;7.20;4.37;;;12.30;99.90;;;;;;5113780;28;20855;-75
2021/10/30 01:29:50;;;;;;;11.40;5.30;;;12.40;99.90;;;;;;5113276;28;20230;-76
2021/10/30 01:32:18;;;;;;;9.37;4.40;;;12.40;99.90;;;;;;5113280;28;20314;-77
2021/10/30 01:34:45;;;;;;;7.63;4.43;;;12.30;99.90;;;;;;5113321;28;20236;-77
2021/10/30 01:37:14;;;;;;;8.57;4.90;;;12.40;99.90;;;;;;5113616;28;20289;-77
2021/10/30 01:39:41;;;;;;;8.43;5.03;;;12.40;99.90;;;;;;5113481;28;20285;-77
2021/10/30 01:42:08;;;;;;;7.73;4.67;;;12.30;99.90;;;;;;5114059;27;20247;-77
2021/10/30 01:44:35;;;;;;;11.77;4.97;;;12.30;99.90;;;;;;5113514;28;20266;-77
2021/10/30 01:47:03;;;;;;;9.87;5.00;;;12.30;99.90;;;;;;5121998;27;20228;-77
2021/10/30 01:49:30;;;;;;;8.80;5.17;;;12.40;99.90;;;;;;5133309;27;20232;-77
2021/10/30 01:51:57;;;;;;;7.10;4.40;;;12.40;99.90;;;;;;5125884;27;20249;-77
2021/10/30 01:54:26;;;;;;;7.87;3.93;;;12.40;99.90;;;;;;5117183;27;20291;-77
2021/10/30 01:56:53;;;;;;;9.30;4.77;;;12.50;99.90;;;;;;5134143;27;20193;-76
2021/10/30 01:59:20;;;;;;;5.80;4.20;;;12.50;99.90;;;;;;5133890;27;20232;-77
2021/10/30 02:01:47;;;;;;;8.37;4.73;;;12.50;99.90;;;;;;5133139;27;20309;-77
2021/10/30 02:04:14;;;;;;;8.10;4.90;;;12.50;99.90;;;;;;5133209;27;20309;-77
2021/10/30 02:06:41;;;;;;;10.60;4.83;;;12.50;99.90;;;;;;5133862;27;20236;-77
2021/10/30 02:09:08;;;;;;;10.57;5.27;;;12.60;99.90;;;;;;5133590;27;20283;-77
2021/10/30 02:11:36;;;;;;;9.00;5.80;;;12.50;99.90;;;;;;5125732;27;20304;-77
2021/10/30 02:14:03;;;;;;;7.80;5.57;;;12.50;99.90;;;;;;5113022;28;20232;-77
2021/10/30 02:16:30;;;;;;;8.83;5.70;;;12.50;99.90;;;;;;5113077;28;20289;-77
2021/10/30 02:18:57;;;;;;;9.27;5.50;;;12.40;99.90;;;;;;5112633;28;20289;-76
2021/10/30 02:21:24;;;;;;;11.90;5.33;;;12.50;99.90;;;;;;5113099;28;20229;-77
2021/10/30 02:23:51;;;;;;;8.60;5.57;;;12.50;99.90;;;;;;5112715;28;20277;-77
2021/10/30 02:26:18;;;;;;;9.23;5.50;;;12.50;99.90;;;;;;5117018;27;21033;-77
2021/10/30 02:28:46;;;;;;;9.30;5.50;;;12.40;99.90;;;;;;5132984;27;20287;-77
2021/10/30 02:31:13;;;;;;;9.90;5.87;;;12.40;99.90;;;;;;5132232;27;20197;-77
2021/10/30 02:33:40;;;;;;;9.50;5.47;;;12.50;99.90;;;;;;5114532;27;20301;-77
2021/10/30 02:36:07;;;;;;;9.00;5.53;;;12.50;99.90;;;;;;5112773;28;20198;-77
2021/10/30 02:38:34;;;;;;;8.83;5.40;;;12.50;99.90;;;;;;5112850;28;20285;-77
2021/10/30 02:41:01;;;;;;;9.23;5.70;;;12.60;99.90;;;;;;5112503;28;20337;-77
2021/10/30 02:43:27;;;;;;;9.70;5.80;;;12.50;99.90;;;;;;5116344;28;20197;-77
2021/10/30 02:45:56;;;;;;;9.87;5.50;;;12.50;99.90;;;;;;5121972;27;20752;-77
2021/10/30 02:48:23;;;;;;;7.10;5.50;;;12.50;99.90;;;;;;5136006;27;20284;-77
2021/10/30 02:50:50;;;;;;;6.70;5.67;;;12.50;99.90;;;;;;5136916;27;20288;-77
2021/10/30 02:53:17;;;;;;;9.47;5.60;;;12.50;99.90;;;;;;5135967;27;20715;-78
2021/10/30 02:55:44;;;;;;;7.53;4.87;;;12.50;99.90;;;;;;5137006;27;20284;-77
2021/10/30 02:58:11;;;;;;;8.93;6.13;;;12.50;99.90;;;;;;5136867;27;20234;-77
2021/10/30 03:00:38;;;;;;;7.73;5.87;;;12.60;99.90;;;;;;5136756;27;20197;-77
2021/10/30 03:03:06;;;;;;;7.20;5.60;;;12.60;99.90;;;;;;5123328;27;20320;-77
2021/10/30 03:05:33;;;;;;;7.43;5.90;;;12.50;99.90;;;;;;5116085;28;20291;-76
2021/10/30 03:08:00;;;;;;;7.63;6.03;;;12.60;99.90;;;;;;5116186;28;20284;-77
2021/10/30 03:10:27;;;;;;;9.47;5.97;;;12.60;99.90;;;;;;5116461;28;20201;-77
2021/10/30 03:12:54;;;;;;;8.47;5.97;;;12.60;99.90;;;;;;5115902;27;20222;-77
2021/10/30 03:15:21;;;;;;;8.80;6.53;;;12.60;99.90;;;;;;5116290;28;20225;-77
2021/10/30 03:17:49;;;;;;;8.80;6.30;;;12.50;99.90;;;;;;5116095;28;20748;-77
2021/10/30 03:20:17;;;;;;;10.30;7.00;;;12.60;99.90;;;;;;5116332;28;20198;-77
2021/10/30 03:22:45;;;;;;;8.37;6.53;;;12.70;99.90;;;;;;5115976;28;20251;-77
2021/10/30 03:25:12;;;;;;;10.10;6.87;;;12.70;99.90;;;;;;5116060;28;20284;-77
2021/10/30 03:27:40;;;;;;;9.37;7.00;;;12.70;99.90;;;;;;5116140;28;20284;-77
2021/10/30 03:30:08;;;;;;;8.77;6.77;;;12.60;99.90;;;;;;5115382;27;20244;-77
2021/10/30 03:32:35;;;;;;;7.77;6.70;;;12.70;99.90;;;;;;5115877;28;20767;-77
2021/10/30 03:35:02;;;;;;;9.90;6.70;;;12.60;99.90;;;;;;5131243;27;20229;-77
2021/10/30 03:37:33;;;;;;;10.23;7.00;;;12.70;99.90;;;;;;5135868;27;20236;-77
2021/10/30 03:40:00;;;;;;;9.33;6.60;;;12.70;99.90;;;;;;5136792;27;20593;-77
2021/10/30 03:42:27;;;;;;;10.13;7.47;;;12.60;99.90;;;;;;5136317;27;20247;-77
2021/10/30 03:44:54;;;;;;;12.37;7.80;;;12.70;99.90;;;;;;5135612;27;20203;-77
2021/10/30 03:47:21;;;;;;;9.70;7.30;;;12.70;99.90;;;;;;5136016;27;20292;-77
2021/10/30 03:49:48;;;;;;;10.57;7.50;;;12.60;99.90;;;;;;5122556;27;20371;-77
2021/10/30 03:52:15;;;;;;;11.10;7.53;;;12.60;99.90;;;;;;5115229;27;20313;-77
2021/10/30 03:54:43;;;;;;;11.27;7.83;;;12.70;99.90;;;;;;5135479;27;20229;-77
2021/10/30 03:57:10;;;;;;;10.13;7.13;;;12.70;99.90;;;;;;5135812;27;20285;-77
2021/10/30 03:59:37;;;;;;;12.00;8.23;;;12.70;99.90;;;;;;5135566;27;20237;-77
2021/10/30 04:02:04;;;;;;;11.23;8.30;;;12.70;99.90;;;;;;5135823;27;20305;-77
2021/10/30 04:04:32;;;;;;;11.20;8.03;;;12.60;99.90;;;;;;5135729;27;20272;-77
2021/10/30 04:06:59;;;;;;;11.30;7.93;;;12.70;99.90;;;;;;5128201;27;20657;-77
2021/10/30 04:09:26;;;;;;;9.77;7.93;;;12.80;99.90;;;;;;5115228;28;20248;-77
2021/10/30 04:11:55;;;;;;;10.63;7.67;;;12.70;99.90;;;;;;5124781;27;20288;-77
2021/10/30 04:14:22;;;;;;;12.20;8.13;;;12.70;99.90;;;;;;5134448;27;20637;-77
2021/10/30 04:16:49;;;;;;;9.87;8.27;;;12.70;99.90;;;;;;5134952;27;20739;-77
2021/10/30 04:19:16;;;;;;;11.37;8.57;;;12.70;99.90;;;;;;5135328;27;20220;-77
2021/10/30 04:21:44;;;;;;;12.00;8.27;;;12.70;99.90;;;;;;5135790;27;20284;-77
2021/10/30 04:24:11;;;;;;;11.33;8.60;;;12.70;99.90;;;;;;5135390;27;20288;-77
2021/10/30 04:26:39;;;;;;;11.40;8.20;;;12.70;99.90;;;;;;5135596;27;20283;-77
2021/10/30 04:29:08;;;;;;;10.57;8.50;;;12.70;99.90;;;;;;5134693;27;20201;-77
2021/10/30 04:31:34;;;;;;;10.37;9.23;;;12.70;99.90;;;;;;5135064;27;20288;-76
2021/10/30 04:34:03;;;;;;;9.97;8.93;;;12.60;99.90;;;;;;5128844;27;20271;-77
2021/10/30 04:36:34;;;;;;;11.83;9.03;;;12.60;99.90;;;;;;5114554;28;20645;-76
2021/10/30 04:39:02;;;;;;;10.97;9.13;;;12.60;99.90;;;;;;5114338;28;20237;-77
2021/10/30 04:41:29;;;;;;;11.17;9.27;;;12.60;99.90;;;;;;5114523;28;20245;-77
2021/10/30 04:43:57;;;;;;;12.83;9.43;;;12.50;99.90;;;;;;5114183;28;20278;-77
2021/10/30 04:46:25;;;;;;;12.53;9.60;;;12.60;99.90;;;;;;5124439;27;20211;-75
2021/10/30 04:48:52;;;;;;;11.33;9.17;;;12.70;99.90;;;;;;5134919;27;20711;-77
2021/10/30 04:51:20;;;;;;;14.17;9.67;;;12.60;99.90;;;;;;5134754;27;20292;-77
2021/10/30 04:53:47;;;;;;;10.67;9.37;;;12.60;99.90;;;;;;5133279;27;20244;-77
2021/10/30 04:56:14;;;;;;;13.43;9.90;;;12.70;99.90;;;;;;5134462;27;20827;-77
2021/10/30 04:58:43;;;;;;;12.57;9.53;;;12.60;99.90;;;;;;5134682;27;20288;-77
2021/10/30 05:01:11;;;;;;;11.27;10.00;;;12.70;99.90;;;;;;5134848;27;20196;-77
2021/10/30 05:03:40;;;;;;;12.70;10.20;;;12.70;99.90;;;;;;5115877;27;20312;-77
2021/10/30 05:06:07;;;;;;;14.80;10.27;;;12.60;99.90;;;;;;5113461;28;20232;-77
2021/10/30 05:08:34;;;;;;;12.10;9.63;;;12.70;99.90;;;;;;5113702;28;20285;-77
2021/10/30 05:11:01;;;;;;;12.23;10.40;;;12.70;99.90;;;;;;5113606;28;20284;-77
2021/10/30 05:13:28;;;;;;;15.33;9.77;;;12.70;99.90;;;;;;5113632;28;20274;-77
2021/10/30 05:15:55;;;;;;;13.67;10.53;;;12.70;99.90;;;;;;5121492;27;20276;-77
2021/10/30 05:18:22;;;;;;;14.37;10.80;;;12.80;99.90;;;;;;5134005;27;20235;-77
2021/10/30 05:20:51;;;;;;;13.30;10.40;;;12.80;99.90;;;;;;5122336;27;20597;-77
2021/10/30 05:23:19;;;;;;;14.00;10.33;;;12.80;99.90;;;;;;5122182;27;20189;-77
2021/10/30 05:25:46;;;;;;;16.03;10.50;;;12.70;99.90;;;;;;5133766;27;20710;-77
2021/10/30 05:28:12;;;;;;;14.00;10.33;;;12.70;99.90;;;;;;5117994;27;20204;-77
2021/10/30 05:30:39;;;;;;;12.77;10.73;;;12.70;99.90;;;;;;5113340;28;20233;-77
2021/10/30 05:33:06;;;;;;;13.63;10.70;;;12.70;99.90;;;;;;5113667;28;20312;-77
2021/10/30 05:35:33;;;;;;;14.37;10.93;;;12.70;99.90;;;;;;5119607;27;20284;-77
2021/10/30 05:38:01;;;;;;;14.90;10.40;;;12.80;99.90;;;;;;5134143;27;20639;-77
2021/10/30 05:40:28;;;;;;;13.57;11.23;;;12.80;99.90;;;;;;5115694;27;20237;-77
2021/10/30 05:42:56;;;;;;;14.43;11.67;;;12.80;99.90;;;;;;5113438;28;20225;-77
2021/10/30 05:45:23;;;;;;;13.33;10.83;;;12.70;99.90;;;;;;5113345;27;20641;-77
2021/10/30 05:47:50;;;;;;;15.90;11.10;;;12.80;99.90;;;;;;5118711;27;20615;-77
2021/10/30 05:50:17;;;;;;;14.77;11.23;;;12.80;99.90;;;;;;5113425;28;20289;-77
2021/10/30 05:52:44;;;;;;;15.23;11.43;;;12.80;99.90;;;;;;5113125;28;20249;-77
2021/10/30 05:55:12;;;;;;;14.30;11.93;;;12.70;99.90;;;;;;5127703;27;20284;-77
2021/10/30 05:57:39;;;;;;;14.87;11.63;;;12.70;99.90;;;;;;5133034;27;20199;-77
2021/10/30 06:00:07;;;;;;;19.73;11.80;;;12.70;99.90;;;;;;5133627;27;20292;-77
2021/10/30 06:02:34;;;;;;;17.13;12.20;;;12.80;99.90;;;;;;5132514;27;20299;-78
2021/10/30 06:05:01;;;;;;;18.47;11.53;;;12.70;99.90;;;;;;5133251;27;20328;-77
2021/10/30 06:07:29;;;;;;;15.30;11.67;;;12.70;99.90;;;;;;5133608;27;20211;-78
2021/10/30 06:09:55;;;;;;;15.93;11.70;;;12.80;99.90;;;;;;5133465;27;20196;-77
2021/10/30 06:12:24;;;;;;;16.30;11.80;;;12.70;99.90;;;;;;5118192;27;20285;-77
2021/10/30 06:14:51;;;;;;;18.07;12.23;;;12.80;99.90;;;;;;5112711;28;20225;-77
2021/10/30 06:17:18;;;;;;;19.33;12.30;;;12.80;99.90;;;;;;5112522;28;20233;-77
2021/10/30 06:19:44;;;;;;;17.13;12.23;;;12.80;99.90;;;;;;5126110;28;20288;-77
2021/10/30 06:22:11;;;;;;;16.70;12.67;;;12.80;99.90;;;;;;5133399;27;20284;-77
2021/10/30 06:24:39;;;;;;;17.47;12.87;;;12.90;99.90;;;;;;5133328;27;20281;-77
2021/10/30 06:27:06;;;;;;;15.90;12.10;;;12.80;99.90;;;;;;5121256;27;20216;-77
2021/10/30 06:29:34;;;;;;;16.33;13.10;;;12.70;99.90;;;;;;5118298;28;20759;-77
2021/10/30 06:32:01;;;;;;;18.73;12.63;;;12.80;99.90;;;;;;5133420;27;20235;-77
2021/10/30 06:34:28;;;;;;;20.37;13.03;;;12.80;99.90;;;;;;5133627;27;20315;-77
2021/10/30 06:36:55;;;;;;;15.43;12.50;;;12.80;99.90;;;;;;5133175;27;20204;-77
2021/10/30 06:39:22;;;;;;;15.67;11.43;;;12.80;99.90;;;;;;5133316;27;20576;-77
2021/10/30 06:41:49;;;;;;;20.10;13.03;;;12.80;99.90;;;;;;5118576;27;20723;-77
2021/10/30 06:44:18;;;;;;;20.87;12.53;;;12.70;99.90;;;;;;5119716;28;20194;-77
2021/10/30 06:46:48;;;;;;;19.97;12.77;;;12.80;99.90;;;;;;5125412;28;20756;-77
2021/10/30 06:49:15;;;;;;;20.77;13.13;;;12.90;99.90;;;;;;5132790;27;20197;-77
2021/10/30 06:51:42;;;;;;;22.73;12.87;;;12.70;99.90;;;;;;5132980;27;20236;-77
2021/10/30 06:54:10;;;;;;;16.87;12.40;;;12.80;99.90;;;;;;5133143;27;20260;-77
2021/10/30 06:56:39;;;;;;;18.83;13.37;;;12.80;99.90;;;;;;5133249;27;20286;-77
2021/10/30 06:59:07;;;;;;;22.83;12.83;;;12.90;99.90;;;;;;5130946;27;20229;-77
2021/10/30 07:01:35;;;;;;;20.40;13.37;;;12.80;99.90;;;;;;5133081;27;20292;-77
2021/10/30 07:04:04;;;;;;;17.27;12.83;;;12.90;99.90;;;;;;5117799;27;20229;-78
2021/10/30 07:06:31;;;;;;;20.53;13.50;;;12.90;99.90;;;;;;5131568;27;20732;-78
2021/10/30 07:08:59;;;;;;;18.27;13.67;;;12.80;99.90;;;;;;5112391;28;20197;-77
2021/10/30 07:11:27;;;;;;;21.93;13.50;;;12.90;99.90;;;;;;5128006;28;20661;-77
2021/10/30 07:13:54;;;;;;;18.53;13.47;;;12.80;99.90;;;;;;5133183;27;20221;-78
2021/10/30 07:16:21;;;;;;;19.10;13.53;;;12.90;99.90;;;;;;5132852;27;20243;-78
2021/10/30 07:18:48;;;;;;;17.87;14.40;;;12.80;99.90;;;;;;5132672;27;20280;-78
2021/10/30 07:21:16;;;;;;;19.07;13.57;;;12.90;99.90;;;;;;5132464;27;20626;-78
2021/10/30 07:23:43;;;;;;;20.57;13.40;;;12.90;99.90;;;;;;5133306;27;20284;-78
2021/10/30 07:26:10;;;;;;;17.97;12.67;;;13.00;99.90;;;;;;5132572;27;20232;-77
2021/10/30 07:28:37;;;;;;;10.80;6.97;;;12.80;99.90;;;;;;5133647;27;20731;-77
2021/10/30 07:31:03;;;;;;;8.03;5.17;;;12.60;99.90;;;;;;5136459;27;20205;-77
2021/10/30 07:33:31;;;;;;;4.70;4.03;;;12.60;99.90;;;;;;5136641;27;20252;-78
2021/10/30 07:35:58;;;;;;;5.80;3.70;;;12.50;99.90;;;;;;5119453;27;20276;-77
2021/10/30 07:38:26;;;;;;;4.70;3.73;;;12.40;99.90;;;;;;5116218;28;20236;-78
2021/10/30 07:40:53;;;;;;;5.20;3.50;;;12.30;99.90;;;;;;5115508;28;20292;-77
2021/10/30 07:43:20;;;;;;;5.63;3.80;;;12.40;99.90;;;;;;5115573;28;20189;-77
2021/10/30 07:45:46;;;;;;;5.33;4.40;;;12.40;99.90;;;;;;5124776;27;20236;-76
2021/10/30 07:48:13;;;;;;;6.80;4.00;;;12.50;99.90;;;;;;5133017;27;20236;-77
2021/10/30 07:50:40;;;;;;;7.40;4.50;;;12.50;99.90;;;;;;5135869;27;20279;-77
2021/10/30 07:53:08;;;;;;;6.30;4.43;;;12.60;99.90;;;;;;5135890;27;20240;-77
2021/10/30 07:55:37;;;;;;;6.80;3.50;;;12.60;99.90;;;;;;5135992;27;20660;-78
2021/10/30 07:58:04;;;;;;;5.13;3.50;;;12.50;99.90;;;;;;5133851;27;20284;-78
2021/10/30 08:00:32;;;;;;;6.23;3.70;;;12.50;99.90;;;;;;5134873;27;20236;-77
2021/10/30 08:02:58;;;;;;;4.03;2.47;;;12.50;99.90;;;;;;5135703;27;20220;-77
2021/10/30 08:05:25;;;;;;;5.77;2.90;;;12.40;99.90;;;;;;5135255;27;20319;-77
2021/10/30 08:07:52;;;;;;;4.93;2.20;;;12.40;99.90;;;;;;5135350;27;20229;-77
2021/10/30 08:10:21;;;;;;;2.23;1.67;;;12.40;99.90;;;;;;5135637;27;20235;-76
2021/10/30 08:12:49;;;;;;;5.37;2.47;;;12.40;99.90;;;;;;5120326;27;20201;-77
2021/10/30 08:15:18;;;;;;;3.53;2.60;;;12.40;99.90;;;;;;5114859;28;20784;-77
2021/10/30 08:17:45;;;;;;;3.53;2.30;;;12.50;99.90;;;;;;5115199;28;20202;-77
2021/10/30 08:20:12;;;;;;;5.13;3.43;;;12.40;99.90;;;;;;5115036;28;20232;-77
2021/10/30 08:22:39;;;;;;;5.83;3.77;;;12.40;99.90;;;;;;5115051;28;20198;-77
2021/10/30 08:25:07;;;;;;;5.30;3.70;;;12.50;99.90;;;;;;5114969;27;20573;-77
2021/10/30 08:27:34;;;;;;;5.00;3.07;;;12.50;99.90;;;;;;5120430;27;20295;-77
2021/10/30 08:30:03;;;;;;;4.33;2.60;;;12.60;99.90;;;;;;5135374;27;20285;-77
2021/10/30 08:32:30;;;;;;;5.23;3.70;;;12.60;99.90;;;;;;5135771;27;20224;-77
2021/10/30 08:34:57;;;;;;;6.43;4.60;;;12.70;99.90;;;;;;5134983;27;20260;-77
2021/10/30 08:37:24;;;;;;;7.50;4.60;;;12.70;99.90;;;;;;5135368;27;20284;-77
2021/10/30 08:39:51;;;;;;;9.07;6.60;;;12.70;99.90;;;;;;5114760;27;20233;-77
2021/10/30 08:42:20;;;;;;;6.53;5.33;;;13.00;99.90;;;;;;5114565;28;20288;-78
2021/10/30 08:44:50;;;;;;;5.97;3.97;;;13.10;99.90;;;;;;5114862;28;20292;-77
2021/10/30 08:47:19;;;;;;;4.67;3.30;;;13.40;99.90;;;;;;5134300;27;20239;-77
2021/10/30 08:49:46;;;;;;;3.03;2.23;;;13.50;99.90;;;;;;5134054;27;20254;-77
2021/10/30 08:52:13;;;;;;;3.13;2.23;;;13.40;99.90;;;;;;5134818;27;20288;-77
2021/10/30 08:54:40;;;;;;;1.97;1.60;;;13.40;99.90;;;;;;5134947;27;20256;-77
2021/10/30 08:57:08;;;;;;;2.53;1.40;;;13.30;99.90;;;;;;5134934;27;20659;-77
2021/10/30 08:59:40;;;;;;;2.73;1.40;;;13.10;99.90;;;;;;5116987;27;20227;-77
2021/10/30 09:02:09;;;;;;;2.83;1.80;;;12.90;99.90;;;;;;5113878;27;20228;-77
2021/10/30 09:04:37;;;;;;;1.80;1.30;;;12.80;99.90;;;;;;5113639;27;20716;-77
2021/10/30 09:07:08;;;;;;;1.00;0.70;;;12.70;99.90;;;;;;5114442;27;20233;-77
2021/10/30 09:09:37;;;;;;;2.50;1.10;;;12.60;99.90;;;;;;5133933;27;20243;-77
2021/10/30 09:12:05;;;;;;;3.97;1.50;;;12.70;99.90;;;;;;5135028;27;20561;-78
2021/10/30 09:14:43;;;;;;;2.77;1.30;;;12.70;99.90;;;;;;5134521;27;20312;-77
2021/10/30 09:17:14;;;;;;;2.63;1.93;;;12.60;99.90;;;;;;5133787;27;20763;-77
2021/10/30 09:19:46;;;;;;;1.63;1.47;;;12.50;99.90;;;;;;5134315;27;20276;-77
2021/10/30 09:22:14;;;;;;;0.90;0.80;;;12.70;99.90;;;;;;5123389;27;20209;-77
2021/10/30 09:24:55;;;;;;;1.63;0.70;;;12.80;99.90;;;;;;5113322;28;20285;-77
2021/10/30 09:27:24;;;;;;;6.23;3.33;;;12.90;99.90;;;;;;5114260;27;20202;-77
2021/10/30 09:29:56;;;;;;;7.63;4.70;;;12.90;99.90;;;;;;5113882;28;20289;-77
2021/10/30 09:32:27;;;;;;;4.00;2.83;;;13.10;99.90;;;;;;5113485;28;20912;-77
2021/10/30 09:34:56;;;;;;;3.20;1.37;;;13.20;99.90;;;;;;5113360;28;20370;-77
2021/10/30 09:37:24;;;;;;;1.50;1.30;;;13.10;99.90;;;;;;5113767;28;20620;-77
2021/10/30 09:40:15;;;;;;;3.10;1.40;;;13.00;99.90;;;;;;5113704;28;20194;-77
2021/10/30 09:42:42;;;;;;;2.50;1.50;;;13.00;99.90;;;;;;5113189;28;20292;-77
2021/10/30 09:45:13;;;;;;;1.50;1.37;;;13.00;99.90;;;;;;5118529;27;20317;-78
2021/10/30 09:47:42;;;;;;;2.90;1.83;;;13.10;99.90;;;;;;5133022;27;20237;-77
2021/10/30 09:50:24;;;;;;;2.40;2.20;;;13.10;99.90;;;;;;5121794;27;20740;-77
2021/10/30 09:52:51;;;;;;;2.10;1.70;;;13.20;99.90;;;;;;5133328;27;20204;-77
2021/10/30 09:55:26;;;;;;;2.67;2.20;;;13.20;99.90;;;;;;5133979;27;20254;-77
2021/10/30 09:58:03;;;;;;;3.00;2.53;;;13.40;99.90;;;;;;5133822;27;20239;-77
2021/10/30 10:00:31;;;;;;;2.63;1.40;;;14.10;99.90;;;;;;5122234;27;20204;-77
2021/10/30 10:03:00;;;;;;;2.83;2.20;;;14.20;99.90;;;;;;5113167;28;20241;-77
2021/10/30 10:05:29;;;;;;;2.20;2.00;;;;;;;;;;5119208;27;20271;-77
2021/10/30 10:07:57;;;;;;;2.40;1.80;;;14.70;99.90;;;;;;5122109;27;20284;-77
2021/10/30 10:10:24;;;;;;;2.60;1.80;;;;;;;;;;5112938;28;20233;-77
2021/10/30 10:12:53;;;;;;;1.60;1.10;;;;;;;;;;5113039;28;20256;-77
2021/10/30 10:15:21;;;;;;;2.40;1.33;;;;;;;;;;5128231;28;20960;-77
2021/10/30 10:17:49;;;;;;;4.73;1.50;;;;;;;;;;5133498;27;20683;-77
2021/10/30 10:20:16;;;;;;;1.60;1.10;;;;;;;;;;5124460;27;20571;-77
2021/10/30 10:22:45;;;;;;;1.80;1.40;;;;;;;;;;5112800;28;20300;-77
2021/10/30 10:25:32;;;;;;;1.60;1.07;;;;;;;;;;5113234;28;20225;-77
2021/10/30 10:28:18;;;;;;;1.90;0.98;;;;;;;;;;5112864;28;20292;-77
2021/10/30 10:30:52;;;;;;;2.20;1.20;;;;;;;;;;5112373;28;20205;-78
2021/10/30 10:33:20;;;;;;;2.92;1.10;;;;;;;;;;5112609;28;20225;-78
2021/10/30 10:36:02;;;;;;;2.72;1.10;;;;;;;;;;5132532;28;20219;-77
2021/10/30 10:38:44;;;;;;;2.40;1.20;;;;;;;;;;5133136;28;20239;-78
2021/10/30 10:41:43;;;;;;;2.85;1.10;;;;;;;;;;5133123;27;20232;-78
2021/10/30 10:44:11;;;;;;;3.53;1.50;;;;;;;;;;5131696;27;20239;-78
2021/10/30 10:46:40;;;;;;;1.65;1.10;;;21.10;99.90;;;;;;5123068;27;20209;-78
2021/10/30 10:49:15;;;;;;;4.47;0.90;;;20.80;99.90;;;;;;5132005;28;20559;-77
2021/10/30 10:51:47;;;;;;;3.10;0.82;;;20.30;99.90;;;;;;5133333;27;20225;-78
2021/10/30 10:54:14;;;;;;;1.65;0.90;;;20.60;99.90;;;;;;5132697;27;20197;-78
2021/10/30 10:56:57;;;;;;;0.93;0.60;;;20.20;99.90;;;;;;5133151;27;20200;-77
2021/10/30 10:59:39;;;;;;;3.20;0.90;;;20.10;99.90;;;;;;5129590;27;20288;-78
2021/10/30 11:02:17;;;;;;;3.55;1.20;;;19.80;99.90;;;;;;5112338;28;20564;-77
2021/10/30 11:05:23;;;;;;;1.60;1.02;;;20.30;99.90;;;;;;5122482;27;20685;-77
2021/10/30 11:08:02;;;;;;;2.58;0.80;;;20.00;99.90;;;;;;5136789;27;20197;-77
2021/10/30 11:10:31;;;;;;;2.65;0.77;;;19.70;99.90;;;;;;5137005;27;20287;-77
2021/10/30 11:13:08;;;;;;;1.85;0.65;;;19.00;99.90;;;;;;5136810;27;20657;-78
2021/10/30 11:15:40;;;;;;;1.05;0.70;;;19.30;99.90;;;;;;5128487;27;20216;-77
2021/10/30 11:18:11;;;;;;;3.20;0.82;;;20.00;99.90;;;;;;5119882;27;20225;-77
2021/10/30 11:20:39;;;;;;;1.83;0.73;;;20.40;99.90;;;;;;5135289;27;20309;-77
2021/10/30 11:23:13;;;;;;;2.35;0.80;;;20.50;99.90;;;;;;5136414;27;20197;-77
2021/10/30 11:25:40;;;;;;;2.08;0.77;;;19.80;99.90;;;;;;5136599;27;20193;-78
2021/10/30 11:28:09;;;;;;;1.17;0.68;;;20.20;99.90;;;;;;5135906;27;20288;-78
2021/10/30 11:30:37;;;;;;;2.35;0.73;;;20.30;99.90;;;;;;5132252;27;20372;-78
2021/10/30 11:33:25;;;;;;;2.05;0.90;;;20.00;99.90;;;;;;5116029;28;20278;-78
2021/10/30 11:36:04;;;;;;;1.20;0.57;;;19.80;99.90;;;;;;5115727;28;20229;-78
2021/10/30 11:38:32;;;;;;;1.98;0.73;;;20.00;99.90;;;;;;5115538;28;20254;-78
2021/10/30 11:41:02;;;;;;;0.98;0.60;;;19.60;99.90;;;;;;5115443;28;20646;-78
2021/10/30 11:43:31;;;;;;;2.30;0.68;;;19.20;99.90;;;;;;5115628;28;20216;-78
2021/10/30 11:45:59;;;;;;;1.10;0.80;;;19.20;99.90;;;;;;5115459;28;20288;-78
2021/10/30 11:48:37;;;;;;;1.88;0.60;;;19.20;99.90;;;;;;5115539;28;20280;-78
2021/10/30 11:51:04;;;;;;;2.15;0.60;;;18.60;99.90;;;;;;5115528;28;20201;-77
2021/10/30 11:53:32;;;;;;;1.48;0.70;;;18.00;99.90;;;;;;5115321;28;20870;-77
2021/10/30 11:56:05;;;;;;;1.30;0.70;;;18.20;99.90;;;;;;5115568;28;20653;-78
2021/10/30 11:58:42;;;;;;;1.23;0.60;;;18.80;99.90;;;;;;5115078;27;20205;-78
2021/10/30 12:01:28;;;;;;;3.03;0.57;;;19.10;99.90;;;;;;5115503;27;20225;-78
2021/10/30 12:04:00;;;;;;;1.27;0.50;;;18.90;99.90;;;;;;5115051;28;20320;-78
2021/10/30 12:06:28;;;;;;;2.60;0.60;;;19.40;99.90;;;;;;5114960;28;20220;-78
2021/10/30 12:08:57;;;;;;;2.17;0.70;;;19.20;99.90;;;;;;5115969;27;20201;-78
2021/10/30 12:11:24;;;;;;;1.35;0.60;;;19.10;99.90;;;;;;5135197;27;20200;-78
2021/10/30 12:13:58;;;;;;;1.38;0.57;;;19.80;99.90;;;;;;5135405;27;20820;-78
2021/10/30 12:16:26;;;;;;;1.45;0.70;;;19.50;99.90;;;;;;5135112;27;20227;-77
2021/10/30 12:18:53;;;;;;;1.40;0.60;;;19.40;99.90;;;;;;5129933;27;20287;-78
2021/10/30 12:21:20;;;;;;;1.83;0.60;;;18.90;99.90;;;;;;5114980;28;20231;-78
2021/10/30 12:23:56;;;;;;;2.10;0.73;;;18.60;99.90;;;;;;5115071;28;20288;-77
2021/10/30 12:26:23;;;;;;;2.30;0.73;;;18.90;99.90;;;;;;5114339;28;20194;-77
2021/10/30 12:28:50;;;;;;;5.68;0.80;;;18.70;99.90;;;;;;5114884;28;20285;-77
2021/10/30 12:31:30;;;;;;;0.88;0.50;;;19.20;99.90;;;;;;5114463;28;20208;-78
2021/10/30 12:33:58;;;;;;;1.80;0.60;;;19.70;99.90;;;;;;5114803;28;20204;-78
2021/10/30 12:36:28;;;;;;;3.83;0.80;;;20.10;99.90;;;;;;5114565;27;20355;-77
2021/10/30 12:38:55;;;;;;;1.25;0.50;;;20.40;99.90;;;;;;5114664;28;20285;-77
2021/10/30 12:41:29;;;;;;;2.40;0.75;;;20.10;99.90;;;;;;5114276;28;20225;-77
2021/10/30 12:43:58;;;;;;;2.53;0.50;;;20.00;99.90;;;;;;5114725;28;20338;-77
2021/10/30 12:46:25;;;;;;;1.25;0.43;;;19.70;99.90;;;;;;5124466;27;20292;-78
2021/10/30 12:48:54;;;;;;;3.22;0.60;;;20.00;99.90;;;;;;5135293;27;20681;-78
2021/10/30 12:51:26;;;;;;;0.70;0.40;;;19.70;99.90;;;;;;5134963;27;20228;-77
2021/10/30 12:54:03;;;;;;;1.77;0.63;;;18.80;99.90;;;;;;5134110;27;20197;-77